createdAt,value
2022-12-11T00:00:59.181Z,-1.40
2022-12-11T00:03:29.846Z,-1.40
2022-12-11T00:05:57.820Z,-1.40
2022-12-11T00:08:25.880Z,-1.40
2022-12-11T00:10:53.821Z,-1.50
2022-12-11T00:13:21.699Z,-1.50
2022-12-11T00:15:49.603Z,-1.60
2022-12-11T00:18:18.874Z,-1.50
2022-12-11T00:20:46.802Z,-1.60
2022-12-11T00:23:14.729Z,-1.50
2022-12-11T00:25:44.970Z,-1.50
2022-12-11T00:28:13.679Z,-1.40
2022-12-11T00:30:42.347Z,-1.40
2022-12-11T00:33:10.945Z,-1.50
2022-12-11T00:35:41.904Z,-1.50
2022-12-11T00:38:10.273Z,-1.50
2022-12-11T00:40:38.605Z,-1.40
2022-12-11T00:43:06.749Z,-1.50
2022-12-11T00:45:38.067Z,-1.50
2022-12-11T00:48:06.795Z,-1.60
2022-12-11T00:50:34.878Z,-1.70
2022-12-11T00:53:05.361Z,-1.50
2022-12-11T00:55:37.477Z,-1.50
2022-12-11T00:58:05.467Z,-1.50
2022-12-11T01:00:33.392Z,-1.40
2022-12-11T01:03:01.379Z,-1.50
2022-12-11T01:05:29.433Z,-1.60
2022-12-11T01:07:57.454Z,-1.50
2022-12-11T01:10:26.260Z,-1.50
2022-12-11T01:12:56.136Z,-1.50
2022-12-11T01:15:27.154Z,-1.30
2022-12-11T01:17:55.866Z,-1.30
2022-12-11T01:20:25.056Z,-1.20
2022-12-11T01:22:54.357Z,-1.40
2022-12-11T01:25:22.706Z,-1.50
2022-12-11T01:27:53.518Z,-1.50
2022-12-11T01:30:23.269Z,-1.50
2022-12-11T01:32:51.310Z,-1.40
2022-12-11T01:35:20.342Z,-1.50
2022-12-11T01:37:48.408Z,-1.40
2022-12-11T01:40:18.136Z,-1.30
2022-12-11T01:42:46.421Z,-1.40
2022-12-11T01:45:27.516Z,-1.60
2022-12-11T01:47:59.532Z,-1.50
2022-12-11T01:50:28.247Z,-1.40
2022-12-11T01:52:56.226Z,-1.30
2022-12-11T01:55:24.390Z,-1.40
2022-12-11T01:57:53.310Z,-1.50
2022-12-11T02:00:23.517Z,-1.40
2022-12-11T02:02:51.452Z,-1.40
2022-12-11T02:05:19.532Z,-1.50
2022-12-11T02:07:52.443Z,-1.50
2022-12-11T02:10:20.701Z,-1.50
2022-12-11T02:12:57.512Z,-1.60
2022-12-11T02:15:33.969Z,-1.60
2022-12-11T02:18:13.018Z,-1.60
2022-12-11T02:20:47.171Z,-1.60
2022-12-11T02:23:47.579Z,-1.60
2022-12-11T02:26:34.744Z,-1.60
2022-12-11T02:29:07.918Z,-1.80
2022-12-11T02:31:39.756Z,-1.90
2022-12-11T02:34:13.007Z,-1.90
2022-12-11T02:36:44.358Z,-1.70
2022-12-11T02:39:15.536Z,-1.60
2022-12-11T02:41:47.821Z,-1.60
2022-12-11T02:44:21.834Z,-1.60
2022-12-11T02:46:50.231Z,-1.50
2022-12-11T02:49:19.969Z,-1.50
2022-12-11T02:51:48.006Z,-1.50
2022-12-11T02:54:20.612Z,-1.40
2022-12-11T02:56:53.199Z,-1.40
2022-12-11T02:59:27.287Z,-1.60
2022-12-11T03:01:55.317Z,-1.60
2022-12-11T03:04:24.932Z,-1.50
2022-12-11T03:06:56.405Z,-1.40
2022-12-11T03:09:24.297Z,-1.50
2022-12-11T03:11:53.463Z,-1.50
2022-12-11T03:14:23.019Z,-1.50
2022-12-11T03:16:58.038Z,-1.50
2022-12-11T03:19:33.131Z,-1.50
2022-12-11T03:22:09.266Z,-1.40
2022-12-11T03:24:41.050Z,-1.40
2022-12-11T03:27:15.650Z,-1.40
2022-12-11T03:29:54.971Z,-1.50
2022-12-11T03:32:27.805Z,-1.60
2022-12-11T03:35:01.209Z,-1.60
2022-12-11T03:37:34.031Z,-1.50
2022-12-11T03:40:13.086Z,-1.50
2022-12-11T03:42:43.535Z,-1.40
2022-12-11T03:45:14.843Z,-1.40
2022-12-11T03:47:44.989Z,-1.30
2022-12-11T03:50:15.528Z,-1.30
2022-12-11T03:52:46.922Z,-1.20
2022-12-11T03:55:19.361Z,-1.30
2022-12-11T03:57:47.368Z,-1.20
2022-12-11T04:00:20.339Z,-1.20
2022-12-11T04:03:13.327Z,-1.30
2022-12-11T04:05:42.899Z,-1.30
2022-12-11T04:08:11.063Z,-1.30
2022-12-11T04:10:39.665Z,-1.30
2022-12-11T04:13:07.753Z,-1.20
2022-12-11T04:15:37.319Z,-1.30
2022-12-11T04:18:24.132Z,-1.20
2022-12-11T04:21:12.299Z,-1.30
2022-12-11T04:23:57.682Z,-1.30
2022-12-11T04:26:25.925Z,-1.30
2022-12-11T04:28:53.829Z,-1.20
2022-12-11T04:31:24.131Z,-1.30
2022-12-11T04:33:52.194Z,-1.30
2022-12-11T04:36:20.148Z,-1.30
2022-12-11T04:38:48.118Z,-1.20
2022-12-11T04:41:17.236Z,-1.30
2022-12-11T04:43:46.116Z,-1.40
2022-12-11T04:46:15.720Z,-1.40
2022-12-11T04:48:45.719Z,-1.50
2022-12-11T04:51:14.396Z,-1.40
2022-12-11T04:53:42.809Z,-1.40
2022-12-11T04:56:12.581Z,-1.40
2022-12-11T04:58:41.787Z,-1.50
2022-12-11T05:01:09.901Z,-1.50
2022-12-11T05:03:38.281Z,-1.50
2022-12-11T05:06:08.827Z,-1.50
2022-12-11T05:08:38.903Z,-1.40
2022-12-11T05:11:09.760Z,-1.40
2022-12-11T05:13:38.329Z,-1.40
2022-12-11T05:16:08.086Z,-1.40
2022-12-11T05:18:38.156Z,-1.30
2022-12-11T05:21:10.233Z,-1.30
2022-12-11T05:23:38.608Z,-1.20
2022-12-11T05:26:08.862Z,-1.30
2022-12-11T05:28:38.798Z,-1.20
2022-12-11T05:31:09.833Z,-1.20
2022-12-11T05:33:37.905Z,-1.20
2022-12-11T05:36:08.526Z,-1.20
2022-12-11T05:38:36.552Z,-1.30
2022-12-11T05:41:07.140Z,-1.30
2022-12-11T05:43:36.923Z,-1.30
2022-12-11T05:46:08.503Z,-1.30
2022-12-11T05:48:37.153Z,-1.50
2022-12-11T05:51:08.304Z,-1.50
2022-12-11T05:53:37.390Z,-1.50
2022-12-11T05:56:06.671Z,-1.60
2022-12-11T05:58:34.986Z,-1.50
2022-12-11T06:01:03.157Z,-1.70
2022-12-11T06:03:31.026Z,-1.60
2022-12-11T06:06:02.154Z,-1.40
2022-12-11T06:08:31.608Z,-1.30
2022-12-11T06:10:59.708Z,-1.30
2022-12-11T06:13:27.966Z,-1.40
2022-12-11T06:15:56.037Z,-1.30
2022-12-11T06:18:24.052Z,-1.40
2022-12-11T06:20:52.098Z,-1.40
2022-12-11T06:23:20.046Z,-1.40
2022-12-11T06:25:49.428Z,-1.50
2022-12-11T06:28:17.541Z,-1.40
2022-12-11T06:30:46.052Z,-1.40
2022-12-11T06:33:14.498Z,-1.30
2022-12-11T06:35:42.709Z,-1.30
2022-12-11T06:38:11.478Z,-1.30
2022-12-11T06:40:39.798Z,-1.20
2022-12-11T06:43:09.048Z,-1.20
2022-12-11T06:45:39.093Z,-1.30
2022-12-11T06:48:07.729Z,-1.20
2022-12-11T06:50:39.432Z,-1.20
2022-12-11T06:53:07.430Z,-1.20
2022-12-11T06:55:41.690Z,-1.30
2022-12-11T06:58:11.898Z,-1.30
2022-12-11T07:00:40.043Z,-1.30
2022-12-11T07:03:08.261Z,-1.20
2022-12-11T07:05:36.260Z,-1.30
2022-12-11T07:08:04.244Z,-1.50
2022-12-11T07:10:33.416Z,-1.40
2022-12-11T07:13:01.320Z,-1.30
2022-12-11T07:15:30.830Z,-1.30
2022-12-11T07:17:59.025Z,-1.30
2022-12-11T07:20:27.001Z,-1.30
2022-12-11T07:22:56.876Z,-1.30
2022-12-11T07:25:24.847Z,-1.40
2022-12-11T07:27:55.386Z,-1.50
2022-12-11T07:30:23.401Z,-1.40
2022-12-11T07:32:55.192Z,-1.40
2022-12-11T07:35:25.274Z,-1.30
2022-12-11T07:37:53.285Z,-1.20
2022-12-11T07:40:21.202Z,-1.30
2022-12-11T07:42:49.099Z,-1.20
2022-12-11T07:45:17.167Z,-1.30
2022-12-11T07:47:45.070Z,-1.10
2022-12-11T07:50:14.350Z,-1.20
2022-12-11T07:52:42.234Z,-1.10
2022-12-11T07:55:11.488Z,-1.10
2022-12-11T07:57:39.580Z,-1.20
2022-12-11T08:00:08.883Z,-1.20
2022-12-11T08:02:38.178Z,-1.20
2022-12-11T08:05:07.093Z,-1.20
2022-12-11T08:07:37.264Z,-1.10
2022-12-11T08:10:06.009Z,-0.90
2022-12-11T08:12:33.949Z,-1.00
2022-12-11T08:15:01.967Z,-1.10
2022-12-11T08:17:32.862Z,-1.00
2022-12-11T08:20:05.522Z,-1.00
2022-12-11T08:22:33.655Z,-0.80
2022-12-11T08:25:03.157Z,-0.80
2022-12-11T08:27:31.135Z,-0.80
2022-12-11T08:29:59.107Z,-0.70
2022-12-11T08:32:27.027Z,-0.60
2022-12-11T08:34:55.372Z,-0.70
2022-12-11T08:37:23.301Z,-0.70
2022-12-11T08:39:51.801Z,-0.80
2022-12-11T08:42:21.284Z,-0.70
2022-12-11T08:44:49.415Z,-0.60
2022-12-11T08:47:17.410Z,-0.50
2022-12-11T08:49:47.212Z,-0.50
2022-12-11T08:52:15.351Z,-0.60
2022-12-11T08:54:43.517Z,-0.60
2022-12-11T08:57:13.465Z,-0.60
2022-12-11T08:59:42.804Z,-0.60
2022-12-11T09:02:13.453Z,-0.70
2022-12-11T09:04:42.836Z,-0.50
2022-12-11T09:07:10.826Z,-0.50
2022-12-11T09:09:38.837Z,-0.50
2022-12-11T09:12:07.504Z,-0.50
2022-12-11T09:14:35.669Z,-0.50
2022-12-11T09:17:08.840Z,-0.30
2022-12-11T09:19:36.925Z,-0.10
2022-12-11T09:22:05.084Z,-0.20
2022-12-11T09:24:33.165Z,-0.20
2022-12-11T09:27:01.210Z,-0.20
2022-12-11T09:29:29.185Z,-0.30
2022-12-11T09:31:57.599Z,-0.50
2022-12-11T09:34:29.487Z,-0.40
2022-12-11T09:37:00.492Z,-0.40
2022-12-11T09:39:29.127Z,-0.30
2022-12-11T09:42:05.430Z,-0.30
2022-12-11T09:44:39.182Z,-0.20
2022-12-11T09:47:18.013Z,-0.20
2022-12-11T09:49:50.858Z,0.10
2022-12-11T09:52:21.730Z,0.20
2022-12-11T09:54:53.747Z,0.10
2022-12-11T09:57:40.926Z,-0.10
2022-12-11T10:00:23.603Z,-0.10
2022-12-11T10:03:19.707Z,-0.20
2022-12-11T10:06:02.657Z,-0.20
2022-12-11T10:08:40.146Z,0.00
2022-12-11T10:11:36.380Z,0.10
2022-12-11T10:14:11.545Z,0.10
2022-12-11T10:16:44.957Z,0.10
2022-12-11T10:19:22.028Z,0.10
2022-12-11T10:21:53.926Z,0.00
2022-12-11T10:25:05.729Z,0.00
2022-12-11T10:27:19.265Z,-0.20
2022-12-11T10:29:47.797Z,-0.20
2022-12-11T10:32:24.161Z,0.10
2022-12-11T10:35:03.675Z,0.20
2022-12-11T10:37:40.181Z,0.30
2022-12-11T10:40:09.863Z,0.20
2022-12-11T10:42:42.577Z,-0.10
2022-12-11T10:45:17.616Z,0.00
2022-12-11T10:47:45.918Z,0.20
2022-12-11T10:50:24.858Z,-0.10
2022-12-11T10:52:54.612Z,-0.10
2022-12-11T10:55:26.697Z,-0.10
2022-12-11T10:57:58.663Z,0.00
2022-12-11T11:00:34.230Z,-0.10
2022-12-11T11:03:03.830Z,-0.10
2022-12-11T11:05:34.802Z,0.00
2022-12-11T11:08:15.767Z,-0.10
2022-12-11T11:10:55.269Z,-0.10
2022-12-11T11:13:24.822Z,-0.30
2022-12-11T11:16:01.741Z,-0.20
2022-12-11T11:18:31.638Z,-0.20
2022-12-11T11:21:00.983Z,-0.10
2022-12-11T11:23:30.804Z,0.00
2022-12-11T11:26:01.580Z,0.10
2022-12-11T11:28:31.885Z,0.20
2022-12-11T11:31:04.563Z,0.20
2022-12-11T11:33:35.246Z,0.30
2022-12-11T11:36:09.002Z,0.10
2022-12-11T11:38:45.775Z,0.20
2022-12-11T11:41:18.546Z,0.00
2022-12-11T11:43:50.760Z,0.10
2022-12-11T11:46:24.751Z,0.20
2022-12-11T11:49:00.214Z,0.30
2022-12-11T11:51:33.301Z,0.20
2022-12-11T11:54:10.411Z,0.10
2022-12-11T11:56:39.638Z,0.40
2022-12-11T11:59:14.800Z,0.50
2022-12-11T12:01:43.318Z,0.30
2022-12-11T12:04:12.738Z,0.30
2022-12-11T12:06:59.016Z,0.40
2022-12-11T12:09:44.102Z,0.20
2022-12-11T12:12:28.527Z,0.20
2022-12-11T12:15:09.929Z,0.00
2022-12-11T12:17:53.617Z,0.00
2022-12-11T12:20:34.871Z,0.10
2022-12-11T12:23:25.064Z,0.20
2022-12-11T12:26:01.445Z,0.20
2022-12-11T12:28:38.584Z,0.40
2022-12-11T12:31:20.526Z,0.30
2022-12-11T12:33:59.771Z,0.20
2022-12-11T12:36:37.636Z,0.20
2022-12-11T12:39:15.980Z,0.20
2022-12-11T12:41:55.161Z,0.20
2022-12-11T12:44:25.917Z,0.30
2022-12-11T12:47:00.901Z,0.20
2022-12-11T12:49:39.362Z,0.20
2022-12-11T12:52:14.622Z,0.20
2022-12-11T12:55:05.547Z,0.20
2022-12-11T12:57:36.211Z,0.20
2022-12-11T13:00:13.134Z,0.20
2022-12-11T13:02:52.109Z,0.00
2022-12-11T13:05:22.900Z,0.20
2022-12-11T13:07:54.597Z,0.20
2022-12-11T13:10:32.347Z,0.20
2022-12-11T13:13:02.784Z,0.10
2022-12-11T13:15:40.717Z,0.10
2022-12-11T13:18:34.959Z,0.20
2022-12-11T13:21:04.431Z,0.10
2022-12-11T13:23:34.126Z,0.00
2022-12-11T13:26:04.321Z,0.00
2022-12-11T13:28:51.010Z,0.10
2022-12-11T13:31:33.702Z,0.10
2022-12-11T13:34:17.014Z,0.20
2022-12-11T13:36:49.579Z,0.20
2022-12-11T13:39:20.597Z,0.20
2022-12-11T13:41:53.295Z,0.10
2022-12-11T13:44:26.656Z,0.10
2022-12-11T13:46:57.773Z,0.40
2022-12-11T13:49:28.853Z,0.30
2022-12-11T13:51:59.127Z,0.10
2022-12-11T13:54:28.040Z,0.10
2022-12-11T13:57:02.813Z,0.20
2022-12-11T13:59:35.179Z,0.40
2022-12-11T14:02:17.208Z,0.40
2022-12-11T14:04:50.728Z,0.30
2022-12-11T14:07:24.924Z,0.30
2022-12-11T14:09:55.465Z,0.20
2022-12-11T14:12:23.409Z,0.00
2022-12-11T14:14:57.053Z,0.00
2022-12-11T14:17:27.226Z,0.20
2022-12-11T14:20:02.855Z,0.20
2022-12-11T14:22:31.603Z,0.20
2022-12-11T14:25:02.777Z,0.10
2022-12-11T14:27:31.174Z,0.10
2022-12-11T14:30:11.751Z,0.20
2022-12-11T14:32:45.894Z,0.20
2022-12-11T14:35:25.262Z,0.20
2022-12-11T14:38:04.877Z,0.30
2022-12-11T14:40:39.540Z,0.30
2022-12-11T14:43:16.551Z,0.20
2022-12-11T14:45:49.674Z,0.20
2022-12-11T14:48:24.499Z,0.20
2022-12-11T14:50:54.793Z,0.10
2022-12-11T14:53:25.425Z,0.10
2022-12-11T14:55:56.707Z,0.20
2022-12-11T14:58:27.209Z,0.10
2022-12-11T15:01:00.689Z,0.10
2022-12-11T15:03:34.254Z,0.00
2022-12-11T15:06:03.402Z,0.10
2022-12-11T15:08:34.172Z,0.00
2022-12-11T15:11:05.683Z,0.00
2022-12-11T15:13:35.940Z,-0.20
2022-12-11T15:16:08.022Z,-0.20
2022-12-11T15:18:40.161Z,-0.10
2022-12-11T15:21:10.573Z,0.30
2022-12-11T15:23:51.722Z,0.30
2022-12-11T15:26:40.066Z,0.40
2022-12-11T15:29:26.114Z,0.50
2022-12-11T15:32:03.325Z,0.50
2022-12-11T15:34:35.205Z,0.60
2022-12-11T15:37:03.500Z,0.40
2022-12-11T15:39:31.408Z,0.30
2022-12-11T15:41:59.364Z,0.60
2022-12-11T15:44:27.369Z,0.50
2022-12-11T15:46:55.312Z,0.40
2022-12-11T15:49:24.675Z,0.70
2022-12-11T15:51:54.464Z,0.70
2022-12-11T15:54:22.447Z,0.50
2022-12-11T15:56:56.481Z,0.20
2022-12-11T15:59:25.586Z,0.00
2022-12-11T16:01:53.948Z,0.30
2022-12-11T16:04:21.912Z,0.50
2022-12-11T16:06:51.768Z,0.70
2022-12-11T16:09:19.831Z,0.70
2022-12-11T16:11:47.791Z,0.50
2022-12-11T16:14:15.752Z,0.40
2022-12-11T16:16:45.198Z,0.30
2022-12-11T16:19:13.892Z,0.40
2022-12-11T16:21:41.842Z,0.40
2022-12-11T16:24:14.085Z,0.30
2022-12-11T16:26:41.983Z,0.40
2022-12-11T16:29:09.878Z,0.30
2022-12-11T16:31:37.875Z,0.30
2022-12-11T16:34:05.764Z,0.40
2022-12-11T16:36:33.783Z,0.30
2022-12-11T16:39:01.824Z,0.40
2022-12-11T16:41:31.209Z,0.40
2022-12-11T16:44:02.161Z,0.30
2022-12-11T16:46:30.295Z,0.40
2022-12-11T16:48:58.373Z,0.40
2022-12-11T16:51:26.294Z,0.40
2022-12-11T16:53:54.204Z,0.40
2022-12-11T16:56:22.198Z,0.50
2022-12-11T16:58:51.689Z,0.40
2022-12-11T17:01:19.857Z,0.60
2022-12-11T17:03:47.801Z,0.60
2022-12-11T17:06:17.324Z,0.60
2022-12-11T17:08:45.832Z,0.60
2022-12-11T17:11:16.619Z,0.60
2022-12-11T17:13:44.954Z,0.60
2022-12-11T17:16:16.253Z,0.50
2022-12-11T17:18:44.709Z,0.40
2022-12-11T17:21:15.332Z,0.30
2022-12-11T17:23:43.683Z,0.20
2022-12-11T17:26:11.592Z,0.10
2022-12-11T17:28:40.402Z,0.10
2022-12-11T17:31:20.225Z,0.30
2022-12-11T17:33:49.560Z,0.20
2022-12-11T17:36:20.486Z,0.20
2022-12-11T17:38:49.001Z,0.40
2022-12-11T17:41:20.675Z,0.50
2022-12-11T17:43:49.709Z,0.50
2022-12-11T17:46:19.820Z,0.30
2022-12-11T17:48:48.192Z,0.20
2022-12-11T17:51:23.831Z,0.20
2022-12-11T17:53:52.492Z,0.30
2022-12-11T17:56:20.519Z,0.30
2022-12-11T17:58:48.473Z,0.50
2022-12-11T18:01:16.559Z,0.30
2022-12-11T18:03:46.999Z,0.30
2022-12-11T18:06:17.024Z,0.10
2022-12-11T18:08:46.050Z,0.00
2022-12-11T18:11:16.071Z,0.20
2022-12-11T18:13:45.159Z,-0.10
2022-12-11T18:16:16.795Z,-0.20
2022-12-11T18:18:47.167Z,0.10
2022-12-11T18:21:17.640Z,0.10
2022-12-11T18:23:45.788Z,0.20
2022-12-11T18:26:14.809Z,0.10
2022-12-11T18:28:43.204Z,0.10
2022-12-11T18:31:12.186Z,0.20
2022-12-11T18:33:41.551Z,0.10
2022-12-11T18:36:13.443Z,0.10
2022-12-11T18:38:42.003Z,0.20
2022-12-11T18:41:12.186Z,0.20
2022-12-11T18:43:40.213Z,0.10
2022-12-11T18:46:09.789Z,0.20
2022-12-11T18:48:38.092Z,0.40
2022-12-11T18:51:09.094Z,0.20
2022-12-11T18:53:40.231Z,0.20
2022-12-11T18:56:10.058Z,0.20
2022-12-11T18:58:38.143Z,0.40
2022-12-11T19:01:11.961Z,0.40
2022-12-11T19:03:39.890Z,0.10
2022-12-11T19:06:10.511Z,0.20
2022-12-11T19:08:40.180Z,0.20
2022-12-11T19:11:08.800Z,0.00
2022-12-11T19:13:36.903Z,0.00
2022-12-11T19:16:06.556Z,0.10
2022-12-11T19:18:35.108Z,0.20
2022-12-11T19:21:08.838Z,0.20
2022-12-11T19:23:37.281Z,0.30
2022-12-11T19:26:12.029Z,0.20
2022-12-11T19:28:39.990Z,0.20
2022-12-11T19:31:10.992Z,0.00
2022-12-11T19:33:39.095Z,0.30
2022-12-11T19:36:09.905Z,0.30
2022-12-11T19:38:38.147Z,0.00
2022-12-11T19:41:09.202Z,0.00
2022-12-11T19:43:37.781Z,0.10
2022-12-11T19:46:08.130Z,0.00
2022-12-11T19:48:37.569Z,0.00
2022-12-11T19:51:06.988Z,0.00
2022-12-11T19:53:35.712Z,0.00
2022-12-11T19:56:04.323Z,0.10
2022-12-11T19:58:34.108Z,0.20
2022-12-11T20:01:03.048Z,0.20
2022-12-11T20:03:31.517Z,0.10
2022-12-11T20:06:03.510Z,0.00
2022-12-11T20:08:47.504Z,0.10
2022-12-11T20:11:19.007Z,0.10
2022-12-11T20:13:49.202Z,0.20
2022-12-11T20:16:33.758Z,0.20
2022-12-11T20:19:08.364Z,0.10
2022-12-11T20:21:36.842Z,0.00
2022-12-11T20:24:08.233Z,0.10
2022-12-11T20:26:38.119Z,0.20
2022-12-11T20:29:08.572Z,-0.10
2022-12-11T20:31:38.855Z,-0.30
2022-12-11T20:34:07.865Z,-0.10
2022-12-11T20:36:36.777Z,0.00
2022-12-11T20:39:05.460Z,0.20
2022-12-11T20:41:36.195Z,0.10
2022-12-11T20:44:04.534Z,-0.10
2022-12-11T20:46:34.127Z,-0.10
2022-12-11T20:49:02.425Z,-0.10
2022-12-11T20:51:32.633Z,0.00
2022-12-11T20:54:01.312Z,0.10
2022-12-11T20:56:31.673Z,0.00
2022-12-11T20:59:01.209Z,0.00
2022-12-11T21:01:31.471Z,0.10
2022-12-11T21:04:01.704Z,0.20
2022-12-11T21:06:31.860Z,0.20
2022-12-11T21:09:00.696Z,0.20
2022-12-11T21:11:28.930Z,0.20
2022-12-11T21:13:56.920Z,0.20
2022-12-11T21:16:25.998Z,0.10
2022-12-11T21:18:54.160Z,0.20
2022-12-11T21:21:25.975Z,0.30
2022-12-11T21:23:54.263Z,0.20
2022-12-11T21:26:22.535Z,0.00
2022-12-11T21:28:54.019Z,0.10
2022-12-11T21:31:23.058Z,0.00
2022-12-11T21:33:51.414Z,0.20
2022-12-11T21:36:19.454Z,0.20
2022-12-11T21:38:49.144Z,0.00
2022-12-11T21:41:19.114Z,-0.10
2022-12-11T21:46:39.513Z,0.00
2022-12-11T21:49:08.923Z,0.20
2022-12-11T21:51:41.504Z,0.10
2022-12-11T21:54:23.471Z,-0.10
2022-12-11T21:56:58.586Z,-0.10
2022-12-11T21:59:37.150Z,-0.20
2022-12-11T22:02:07.535Z,-0.10
2022-12-11T22:04:40.832Z,0.10
2022-12-11T22:07:09.022Z,0.10
2022-12-11T22:09:38.519Z,0.10
2022-12-11T22:12:06.847Z,0.10
2022-12-11T22:14:37.761Z,0.00
2022-12-11T22:17:05.857Z,-0.10
2022-12-11T22:19:33.961Z,-0.10
2022-12-11T22:22:02.141Z,-0.20
2022-12-11T22:24:30.208Z,-0.20
2022-12-11T22:26:59.757Z,-0.20
2022-12-11T22:29:27.704Z,-0.20
2022-12-11T22:31:55.687Z,-0.10
2022-12-11T22:34:23.652Z,0.00
2022-12-11T22:36:51.652Z,-0.10
2022-12-11T22:39:19.671Z,-0.10
2022-12-11T22:41:47.557Z,0.00
2022-12-11T22:44:20.187Z,0.10
2022-12-11T22:46:50.176Z,-0.10
2022-12-11T22:49:18.818Z,-0.10
2022-12-11T22:51:46.919Z,0.00
2022-12-11T22:54:15.073Z,-0.20
2022-12-11T22:56:43.137Z,-0.20
2022-12-11T22:59:11.157Z,-0.20
2022-12-11T23:01:40.523Z,0.00
2022-12-11T23:04:08.781Z,-0.10
2022-12-11T23:06:36.820Z,-0.20
2022-12-11T23:09:05.625Z,-0.30
2022-12-11T23:11:36.662Z,-0.30
2022-12-11T23:14:06.361Z,-0.30
2022-12-11T23:16:34.704Z,-0.20
2022-12-11T23:19:05.074Z,-0.10
2022-12-11T23:21:33.590Z,-0.20
2022-12-11T23:24:02.847Z,-0.10
2022-12-11T23:26:31.609Z,-0.20
2022-12-11T23:29:02.441Z,-0.30
2022-12-11T23:31:33.140Z,-0.20
2022-12-11T23:34:01.470Z,-0.30
2022-12-11T23:36:31.736Z,-0.20
2022-12-11T23:38:59.670Z,-0.10
2022-12-11T23:41:30.922Z,-0.20
2022-12-11T23:43:58.843Z,-0.20
2022-12-11T23:46:27.099Z,-0.20
2022-12-11T23:48:55.874Z,-0.10
2022-12-11T23:51:28.049Z,-0.30
2022-12-11T23:53:57.709Z,-0.30
2022-12-11T23:56:28.372Z,-0.30
2022-12-11T23:58:57.623Z,-0.30
